Time;durP1;ratioP1;P1;durP2;ratioP2;P2;SDS_P1;SDS_P2;PMS_P1;PMS_P2;Temp;Humidity;BMP_temperature;BMP_pressure;BME280_temperature;BME280_humidity;BME280_pressure;Samples;Min_cycle;Max_cycle;Signal;HPM_P1;HPM_P2
2022/11/24 00:01:18;;;;;;;12.40;2.40;;;8.70;99.90;;;;;;5055290;28;20626;-46
2022/11/24 00:03:45;;;;;;;15.45;2.70;;;8.70;99.90;;;;;;5055649;28;20178;-46
2022/11/24 00:06:13;;;;;;;15.75;3.40;;;8.70;99.90;;;;;;5055354;28;20245;-46
2022/11/24 00:08:41;;;;;;;13.65;3.22;;;8.80;99.90;;;;;;5055348;28;20638;-46
2022/11/24 00:11:16;;;;;;;13.38;3.08;;;8.80;99.90;;;;;;5055274;28;20642;-48
2022/11/24 00:13:42;;;;;;;14.35;3.45;;;8.80;99.90;;;;;;5055441;28;20218;-46
2022/11/24 00:16:15;;;;;;;14.75;3.00;;;8.70;99.90;;;;;;5055179;28;20162;-46
2022/11/24 00:18:43;;;;;;;13.95;3.15;;;8.80;99.90;;;;;;5055395;28;20177;-46
2022/11/24 00:21:09;;;;;;;15.93;3.75;;;8.80;99.90;;;;;;5055022;28;20167;-45
2022/11/24 00:23:34;;;;;;;19.75;3.40;;;8.80;99.90;;;;;;5055203;28;20186;-47
2022/11/24 00:26:08;;;;;;;21.70;3.08;;;8.80;99.90;;;;;;5054985;28;20170;-46
2022/11/24 00:28:34;;;;;;;14.10;3.08;;;8.70;99.90;;;;;;5054995;28;20190;-46
2022/11/24 00:31:00;;;;;;;11.15;2.80;;;8.80;99.90;;;;;;5054939;28;20166;-46
2022/11/24 00:33:26;;;;;;;13.98;2.65;;;8.70;99.90;;;;;;5054924;28;20309;-46
2022/11/24 00:35:57;;;;;;;15.95;2.95;;;8.70;99.90;;;;;;5055175;28;20642;-46
2022/11/24 00:38:23;;;;;;;11.85;2.47;;;8.80;99.90;;;;;;5055350;28;20249;-47
2022/11/24 00:40:49;;;;;;;19.65;3.25;;;8.70;99.90;;;;;;5054961;28;20174;-45
2022/11/24 00:43:14;;;;;;;16.60;2.95;;;8.70;99.90;;;;;;5055018;28;21282;-47
2022/11/24 00:45:41;;;;;;;13.98;2.42;;;8.70;99.90;;;;;;5054685;28;20208;-48
2022/11/24 00:48:07;;;;;;;19.30;3.28;;;8.70;99.90;;;;;;5054630;28;20204;-46
2022/11/24 00:50:33;;;;;;;16.50;3.58;;;8.60;99.90;;;;;;5054617;28;20170;-46
2022/11/24 00:52:58;;;;;;;9.15;2.55;;;8.70;99.90;;;;;;5054420;28;20194;-51
2022/11/24 00:55:24;;;;;;;15.68;2.58;;;8.70;99.90;;;;;;5054857;28;20658;-48
2022/11/24 00:57:50;;;;;;;11.30;2.50;;;8.70;99.90;;;;;;5054385;28;20626;-46
2022/11/24 01:00:16;;;;;;;13.63;3.15;;;8.70;99.90;;;;;;5054220;28;20272;-46
2022/11/24 01:02:42;;;;;;;10.02;2.97;;;8.70;99.90;;;;;;5054234;28;20524;-46
2022/11/24 01:05:09;;;;;;;12.63;2.63;;;8.70;99.90;;;;;;5054154;28;20198;-46
2022/11/24 01:07:35;;;;;;;13.40;2.45;;;8.70;99.90;;;;;;5054128;28;20205;-46
2022/11/24 01:10:00;;;;;;;9.30;2.38;;;8.70;99.90;;;;;;5054070;28;20188;-47
2022/11/24 01:12:27;;;;;;;4.10;1.63;;;8.80;99.90;;;;;;5054048;28;20245;-46
2022/11/24 01:14:53;;;;;;;13.15;2.85;;;8.90;99.90;;;;;;5054355;28;20536;-46
2022/11/24 01:17:18;;;;;;;11.27;2.60;;;8.90;99.90;;;;;;5054089;28;20197;-46
2022/11/24 01:19:46;;;;;;;13.32;2.88;;;9.00;99.90;;;;;;5053986;28;20170;-47
2022/11/24 01:22:12;;;;;;;12.15;2.50;;;8.90;99.90;;;;;;5053935;28;20254;-46
2022/11/24 01:24:37;;;;;;;13.88;2.63;;;9.00;99.90;;;;;;5053921;28;20189;-46
2022/11/24 01:27:03;;;;;;;12.45;3.00;;;9.00;99.90;;;;;;5053806;28;20631;-48
2022/11/24 01:29:29;;;;;;;14.45;2.90;;;8.90;99.90;;;;;;5053956;28;20563;-45
2022/11/24 01:31:54;;;;;;;10.77;2.25;;;8.90;99.90;;;;;;5054127;28;20634;-47
2022/11/24 01:34:20;;;;;;;10.70;3.08;;;8.90;99.90;;;;;;5036294;28;20221;-46
2022/11/24 01:36:46;;;;;;;14.93;3.67;;;8.90;99.90;;;;;;5053609;28;20178;-46
2022/11/24 01:39:12;;;;;;;17.70;2.85;;;9.00;99.90;;;;;;5053852;28;20177;-46
2022/11/24 01:41:38;;;;;;;13.07;2.60;;;8.80;99.90;;;;;;5053856;28;20175;-45
2022/11/24 01:44:21;;;;;;;16.02;3.30;;;8.80;99.90;;;;;;5053598;28;20550;-46
2022/11/24 01:46:56;;;;;;;11.95;2.78;;;8.80;99.90;;;;;;5053498;28;20171;-46
2022/11/24 01:49:43;;;;;;;11.05;2.38;;;8.90;99.90;;;;;;5053800;28;20169;-46
2022/11/24 01:52:32;;;;;;;13.38;2.50;;;8.90;99.90;;;;;;5053420;28;20214;-46
2022/11/24 01:55:05;;;;;;;13.40;3.03;;;9.00;99.90;;;;;;5053413;28;20688;-46
2022/11/24 01:57:46;;;;;;;18.38;3.30;;;8.90;99.90;;;;;;5053286;28;20166;-46
2022/11/24 02:00:13;;;;;;;12.55;2.65;;;9.00;99.90;;;;;;5053190;28;20788;-49
2022/11/24 02:02:41;;;;;;;14.63;3.10;;;9.00;99.90;;;;;;5053544;28;20182;-47
2022/11/24 02:05:21;;;;;;;15.93;3.00;;;9.00;99.90;;;;;;5053120;28;20208;-50
2022/11/24 02:07:47;;;;;;;14.50;3.00;;;9.00;99.90;;;;;;5052497;28;20167;-47
2022/11/24 02:10:14;;;;;;;19.92;3.13;;;9.00;99.90;;;;;;5053064;28;20292;-46
2022/11/24 02:12:46;;;;;;;16.05;3.50;;;9.10;99.90;;;;;;5052877;28;20273;-46
2022/11/24 02:15:14;;;;;;;12.15;3.20;;;9.10;99.90;;;;;;5052914;28;20162;-47
2022/11/24 02:17:40;;;;;;;18.10;3.78;;;9.10;99.90;;;;;;5052833;28;20167;-47
2022/11/24 02:20:09;;;;;;;12.25;3.00;;;9.10;99.90;;;;;;5052869;28;20166;-47
2022/11/24 02:22:59;;;;;;;18.08;3.90;;;9.10;99.90;;;;;;5053076;28;20174;-46
2022/11/24 02:25:28;;;;;;;13.23;3.72;;;9.10;99.90;;;;;;5052982;28;20536;-46
2022/11/24 02:27:55;;;;;;;21.50;4.35;;;9.20;99.90;;;;;;5053106;28;20196;-46
2022/11/24 02:30:21;;;;;;;16.45;3.28;;;9.10;99.90;;;;;;5053068;28;20171;-46
2022/11/24 02:32:47;;;;;;;12.45;3.75;;;9.10;99.90;;;;;;5052529;28;20696;-46
2022/11/24 02:35:13;;;;;;;14.65;3.30;;;9.20;99.90;;;;;;5052414;28;20665;-46
2022/11/24 02:37:39;;;;;;;14.50;3.03;;;9.10;99.90;;;;;;5052495;28;20598;-46
2022/11/24 02:40:05;;;;;;;11.50;4.18;;;9.00;99.90;;;;;;5052679;28;20258;-46
2022/11/24 02:42:34;;;;;;;17.98;3.38;;;9.00;99.90;;;;;;5052480;28;20635;-46
2022/11/24 02:45:00;;;;;;;24.60;5.13;;;9.00;99.90;;;;;;5052406;28;20639;-46
2022/11/24 02:47:26;;;;;;;11.00;3.40;;;9.00;99.90;;;;;;5052289;28;20166;-47
2022/11/24 02:49:52;;;;;;;22.60;3.95;;;8.90;99.90;;;;;;5052661;28;20208;-46
2022/11/24 02:52:18;;;;;;;18.67;3.72;;;8.80;99.90;;;;;;5052182;28;20572;-46
2022/11/24 02:54:43;;;;;;;22.05;4.18;;;8.70;99.90;;;;;;5052175;28;20182;-46
2022/11/24 02:57:10;;;;;;;16.35;3.00;;;8.60;99.90;;;;;;5052249;28;20216;-46
2022/11/24 02:59:36;;;;;;;21.27;3.85;;;8.60;99.90;;;;;;5052041;28;20658;-46
2022/11/24 03:02:02;;;;;;;22.98;4.47;;;8.60;99.90;;;;;;5052490;28;20635;-46
2022/11/24 03:04:28;;;;;;;17.33;3.08;;;8.60;99.90;;;;;;5052102;28;20166;-45
2022/11/24 03:06:54;;;;;;;21.00;4.68;;;8.60;99.90;;;;;;5052670;28;20578;-46
2022/11/24 03:09:19;;;;;;;18.35;4.78;;;8.60;99.90;;;;;;5052377;28;20162;-46
2022/11/24 03:11:45;;;;;;;20.48;4.72;;;8.60;99.90;;;;;;5052034;28;20174;-46
2022/11/24 03:14:10;;;;;;;27.55;5.72;;;8.60;99.90;;;;;;5051784;28;20654;-46
2022/11/24 03:16:36;;;;;;;16.98;4.00;;;8.70;99.90;;;;;;5051840;28;20220;-46
2022/11/24 03:19:02;;;;;;;17.60;4.10;;;8.70;99.90;;;;;;5051170;28;20224;-45
2022/11/24 03:21:27;;;;;;;16.70;4.07;;;8.80;99.90;;;;;;5051594;28;20163;-46
2022/11/24 03:23:53;;;;;;;17.95;4.82;;;8.70;99.90;;;;;;5052087;28;20166;-46
2022/11/24 03:26:21;;;;;;;17.17;4.13;;;8.70;99.90;;;;;;5051960;28;20209;-46
2022/11/24 03:28:46;;;;;;;21.95;4.53;;;8.80;99.90;;;;;;5051745;28;20604;-46
2022/11/24 03:31:12;;;;;;;23.80;4.18;;;8.80;99.90;;;;;;5051738;28;20191;-46
2022/11/24 03:33:39;;;;;;;12.77;4.07;;;8.80;99.90;;;;;;5051638;28;20217;-46
2022/11/24 03:36:06;;;;;;;15.52;3.75;;;8.70;99.90;;;;;;5051620;28;20661;-46
2022/11/24 03:38:32;;;;;;;23.20;3.97;;;8.70;99.90;;;;;;5051633;28;20249;-46
2022/11/24 03:40:58;;;;;;;12.68;3.10;;;8.80;99.90;;;;;;5033583;28;20262;-46
2022/11/24 03:43:23;;;;;;;26.92;4.18;;;8.80;99.90;;;;;;5051792;28;20249;-46
2022/11/24 03:45:49;;;;;;;12.48;3.15;;;8.80;99.90;;;;;;5051703;28;20170;-47
2022/11/24 03:48:16;;;;;;;19.60;4.00;;;8.80;99.90;;;;;;5051613;28;20171;-47
2022/11/24 03:50:42;;;;;;;15.15;2.90;;;8.80;99.90;;;;;;5051493;28;20154;-47
2022/11/24 03:53:08;;;;;;;22.13;3.47;;;8.80;99.90;;;;;;5051475;28;20202;-52
2022/11/24 03:55:34;;;;;;;14.20;3.00;;;8.80;99.90;;;;;;5051286;28;20535;-49
2022/11/24 03:58:00;;;;;;;15.10;3.72;;;8.90;99.90;;;;;;5051410;28;20181;-50
2022/11/24 04:00:26;;;;;;;17.67;4.05;;;8.90;99.90;;;;;;5051404;28;20292;-49
2022/11/24 04:02:52;;;;;;;16.50;3.38;;;8.90;99.90;;;;;;5052016;28;20186;-50
2022/11/24 04:05:18;;;;;;;21.10;4.30;;;8.90;99.90;;;;;;5051308;28;20193;-48
2022/11/24 04:07:43;;;;;;;18.73;3.35;;;8.90;99.90;;;;;;5051377;28;20285;-49
2022/11/24 04:10:09;;;;;;;12.32;3.10;;;8.90;99.90;;;;;;5051335;28;20191;-53
2022/11/24 04:12:43;;;;;;;18.10;3.80;;;9.00;99.90;;;;;;5051359;28;20167;-53
2022/11/24 04:15:17;;;;;;;17.77;3.47;;;8.90;99.90;;;;;;5051259;28;20166;-52
2022/11/24 04:17:43;;;;;;;19.25;3.40;;;9.00;99.90;;;;;;5051477;28;20213;-52
2022/11/24 04:20:10;;;;;;;11.57;2.92;;;9.00;99.90;;;;;;5051279;28;20167;-53
2022/11/24 04:22:35;;;;;;;19.95;3.80;;;9.00;99.90;;;;;;5051189;28;20285;-49
2022/11/24 04:25:02;;;;;;;19.52;3.35;;;9.00;99.90;;;;;;5051485;28;20201;-51
2022/11/24 04:27:28;;;;;;;15.95;3.83;;;9.00;99.90;;;;;;5051089;28;20175;-52
2022/11/24 04:29:53;;;;;;;17.55;3.08;;;9.10;99.90;;;;;;5051631;28;20181;-49
2022/11/24 04:32:19;;;;;;;17.52;3.40;;;9.10;99.90;;;;;;5054639;28;20174;-49
2022/11/24 04:34:44;;;;;;;19.52;3.42;;;9.10;99.90;;;;;;5054742;28;20203;-48
2022/11/24 04:37:11;;;;;;;11.60;2.90;;;9.10;99.90;;;;;;5054939;28;20185;-52
2022/11/24 04:39:36;;;;;;;22.52;4.05;;;9.10;99.90;;;;;;5054796;28;20262;-50
2022/11/24 04:42:02;;;;;;;15.40;3.35;;;9.20;99.90;;;;;;5054941;28;20209;-47
2022/11/24 04:44:27;;;;;;;17.27;3.00;;;9.20;99.90;;;;;;5054555;28;20173;-51
2022/11/24 04:46:53;;;;;;;17.38;3.78;;;9.20;99.90;;;;;;5054883;28;20178;-45
2022/11/24 04:49:19;;;;;;;19.60;3.72;;;9.20;99.90;;;;;;5054632;28;20167;-46
2022/11/24 04:51:45;;;;;;;19.63;3.85;;;9.20;99.90;;;;;;5054541;28;20173;-46
2022/11/24 04:54:12;;;;;;;25.00;3.53;;;9.20;99.90;;;;;;5054440;28;20287;-46
2022/11/24 04:56:38;;;;;;;18.50;2.95;;;9.20;99.90;;;;;;5054668;28;20225;-45
2022/11/24 04:59:04;;;;;;;17.65;3.92;;;9.40;99.90;;;;;;5053935;28;20534;-46
2022/11/24 05:01:30;;;;;;;20.73;4.38;;;9.30;99.90;;;;;;5054205;28;20210;-46
2022/11/24 05:03:57;;;;;;;19.48;4.07;;;9.30;99.90;;;;;;5054231;28;20606;-46
2022/11/24 05:06:23;;;;;;;25.55;4.22;;;9.30;99.90;;;;;;5054421;28;20635;-46
2022/11/24 05:08:50;;;;;;;16.45;3.00;;;9.30;99.90;;;;;;5054137;28;20189;-48
2022/11/24 05:11:16;;;;;;;15.80;4.00;;;9.30;99.90;;;;;;5054006;28;20170;-49
2022/11/24 05:13:41;;;;;;;13.93;3.33;;;9.40;99.90;;;;;;5054048;28;20206;-50
2022/11/24 05:16:07;;;;;;;14.63;3.85;;;9.30;99.90;;;;;;5054051;28;20255;-46
2022/11/24 05:18:33;;;;;;;16.00;3.55;;;9.40;99.90;;;;;;5054148;28;20194;-46
2022/11/24 05:20:59;;;;;;;11.13;3.00;;;9.40;99.90;;;;;;5054034;28;20182;-46
2022/11/24 05:23:25;;;;;;;21.13;4.25;;;9.30;99.90;;;;;;5053988;28;20179;-46
2022/11/24 05:25:50;;;;;;;12.90;3.25;;;9.30;99.90;;;;;;5054453;28;20270;-47
2022/11/24 05:28:17;;;;;;;15.18;3.25;;;9.30;99.90;;;;;;5053867;28;20288;-46
2022/11/24 05:30:43;;;;;;;19.80;3.53;;;9.20;99.90;;;;;;5053678;28;20294;-47
2022/11/24 05:33:17;;;;;;;20.80;3.45;;;9.30;99.90;;;;;;5053682;28;20202;-48
2022/11/24 05:35:44;;;;;;;12.95;3.88;;;9.30;99.90;;;;;;5053923;28;20766;-48
2022/11/24 05:38:10;;;;;;;15.82;3.28;;;9.30;99.90;;;;;;5053724;28;20173;-46
2022/11/24 05:40:36;;;;;;;6.95;2.17;;;9.30;99.90;;;;;;5053626;28;20667;-46
2022/11/24 05:43:02;;;;;;;14.57;2.78;;;9.20;99.90;;;;;;5052505;28;20166;-47
2022/11/24 05:45:29;;;;;;;9.30;2.30;;;9.30;99.90;;;;;;5053471;28;20258;-46
2022/11/24 05:48:02;;;;;;;10.93;2.72;;;9.30;99.90;;;;;;5053331;28;20170;-45
2022/11/24 05:50:28;;;;;;;15.18;2.90;;;9.30;99.90;;;;;;5035426;28;20233;-46
2022/11/24 05:52:53;;;;;;;12.70;2.88;;;9.20;99.90;;;;;;5053504;28;20670;-45
2022/11/24 05:55:19;;;;;;;10.20;2.83;;;9.20;99.90;;;;;;5053517;28;20167;-47
2022/11/24 05:57:45;;;;;;;10.77;2.20;;;9.20;99.90;;;;;;5053514;28;20170;-46
2022/11/24 06:00:11;;;;;;;11.50;2.63;;;9.20;99.90;;;;;;5052968;28;20682;-46
2022/11/24 06:02:37;;;;;;;3.53;1.42;;;9.20;99.90;;;;;;5053461;28;20537;-47
2022/11/24 06:05:02;;;;;;;4.88;1.83;;;9.20;99.90;;;;;;5053230;28;20167;-46
2022/11/24 06:07:28;;;;;;;6.70;1.30;;;9.10;99.90;;;;;;5053116;28;20171;-46
2022/11/24 06:09:53;;;;;;;12.88;2.55;;;9.10;99.90;;;;;;5053066;28;20171;-46
2022/11/24 06:12:19;;;;;;;13.82;2.30;;;9.10;99.90;;;;;;5035567;28;20656;-46
2022/11/24 06:14:45;;;;;;;4.43;1.45;;;9.10;99.90;;;;;;5052833;28;20627;-46
2022/11/24 06:17:11;;;;;;;9.93;2.15;;;9.10;99.90;;;;;;5052939;28;20166;-46
2022/11/24 06:19:37;;;;;;;4.53;1.80;;;9.10;99.90;;;;;;5052895;28;20162;-46
2022/11/24 06:22:02;;;;;;;5.05;1.63;;;9.00;99.90;;;;;;5052850;28;20645;-45
2022/11/24 06:24:28;;;;;;;4.70;1.60;;;9.00;99.90;;;;;;5052777;28;20695;-45
2022/11/24 06:26:53;;;;;;;3.97;2.10;;;8.90;99.90;;;;;;5052813;28;20583;-46
2022/11/24 06:29:19;;;;;;;7.07;1.27;;;8.90;99.90;;;;;;5053129;28;20163;-45
2022/11/24 06:31:44;;;;;;;6.43;1.20;;;8.90;99.90;;;;;;5052555;28;20171;-46
2022/11/24 06:34:12;;;;;;;4.15;1.65;;;8.80;99.90;;;;;;5052720;28;20243;-47
2022/11/24 06:36:38;;;;;;;6.75;1.13;;;8.80;99.90;;;;;;5052480;28;20236;-46
2022/11/24 06:39:05;;;;;;;3.58;1.50;;;8.80;99.90;;;;;;5052364;28;20626;-46
2022/11/24 06:41:31;;;;;;;3.83;1.25;;;8.80;99.90;;;;;;5052458;28;20201;-46
2022/11/24 06:43:57;;;;;;;2.92;1.30;;;8.70;99.90;;;;;;5052382;28;20579;-48
2022/11/24 06:46:23;;;;;;;6.15;1.10;;;8.70;99.90;;;;;;5052736;28;20236;-46
2022/11/24 06:48:51;;;;;;;1.00;0.80;;;8.70;99.90;;;;;;5052730;28;20505;-48
2022/11/24 06:51:17;;;;;;;5.22;1.02;;;8.60;99.90;;;;;;5052257;28;20159;-47
2022/11/24 06:53:43;;;;;;;2.97;1.15;;;8.60;99.90;;;;;;5052213;28;20290;-52
2022/11/24 06:56:11;;;;;;;3.97;1.02;;;8.60;99.90;;;;;;5052057;28;20174;-49
2022/11/24 06:58:43;;;;;;;2.20;1.05;;;8.60;99.90;;;;;;5053052;28;20202;-47
2022/11/24 07:01:12;;;;;;;6.30;1.08;;;8.50;99.90;;;;;;5070267;28;20232;-50
2022/11/24 07:03:38;;;;;;;2.72;0.80;;;8.50;99.90;;;;;;5055424;28;20531;-49
2022/11/24 07:06:03;;;;;;;3.80;1.23;;;8.50;99.90;;;;;;5050310;28;20170;-47
2022/11/24 07:08:29;;;;;;;5.53;1.52;;;8.50;99.90;;;;;;5050719;28;20170;-47
2022/11/24 07:10:55;;;;;;;2.20;0.93;;;8.40;99.90;;;;;;5050431;28;20638;-46
2022/11/24 07:13:20;;;;;;;3.30;1.48;;;8.40;99.90;;;;;;5050319;28;20738;-47
2022/11/24 07:15:46;;;;;;;2.75;1.00;;;8.40;99.90;;;;;;5049895;28;20177;-46
2022/11/24 07:18:12;;;;;;;4.43;1.42;;;8.30;99.90;;;;;;5050216;28;20170;-47
2022/11/24 07:20:38;;;;;;;4.55;1.63;;;8.30;99.90;;;;;;5049965;28;20185;-53
2022/11/24 07:23:03;;;;;;;4.95;1.23;;;8.30;99.90;;;;;;5050034;28;20167;-48
2022/11/24 07:25:29;;;;;;;3.42;1.40;;;8.40;99.90;;;;;;5049929;28;20178;-54
2022/11/24 07:27:56;;;;;;;7.10;1.80;;;8.40;99.90;;;;;;5050049;28;20174;-47
2022/11/24 07:30:22;;;;;;;3.38;0.90;;;8.40;99.90;;;;;;5050473;28;20170;-46
2022/11/24 07:32:48;;;;;;;6.65;1.38;;;8.40;99.90;;;;;;5050080;28;20220;-48
2022/11/24 07:35:13;;;;;;;5.82;1.52;;;8.40;99.90;;;;;;5049865;28;20179;-45
2022/11/24 07:37:39;;;;;;;5.88;1.92;;;8.40;99.90;;;;;;5049896;28;20170;-48
2022/11/24 07:40:05;;;;;;;5.18;1.35;;;8.40;99.90;;;;;;5049985;28;20613;-53
2022/11/24 07:42:31;;;;;;;6.68;1.52;;;8.40;99.90;;;;;;5049764;28;20167;-52
2022/11/24 07:44:56;;;;;;;1.70;1.27;;;8.40;99.90;;;;;;5050029;28;20320;-51
2022/11/24 07:47:22;;;;;;;3.97;1.25;;;8.40;99.90;;;;;;5050150;28;20186;-47
2022/11/24 07:49:47;;;;;;;3.50;1.13;;;10.20;99.90;;;;;;5050140;28;20188;-51
2022/11/24 07:52:13;;;;;;;7.53;1.90;;;8.50;99.90;;;;;;5049838;28;20170;-48
2022/11/24 07:54:39;;;;;;;3.95;1.90;;;8.50;99.90;;;;;;5049779;28;20221;-51
2022/11/24 07:57:04;;;;;;;6.30;1.50;;;8.50;99.90;;;;;;5049668;28;20189;-51
2022/11/24 07:59:30;;;;;;;5.65;1.63;;;8.50;99.90;;;;;;5049614;28;20205;-54
2022/11/24 08:01:55;;;;;;;4.10;1.20;;;8.60;99.90;;;;;;5049525;28;20182;-51
2022/11/24 08:04:21;;;;;;;4.50;1.67;;;8.60;99.90;;;;;;5049882;28;20174;-48
2022/11/24 08:06:46;;;;;;;10.27;2.10;;;8.50;99.90;;;;;;5051953;28;20166;-47
2022/11/24 08:09:12;;;;;;;7.32;2.20;;;8.60;99.90;;;;;;5067246;28;20185;-49
2022/11/24 08:11:37;;;;;;;6.25;1.70;;;8.60;99.90;;;;;;5073440;28;20227;-51
2022/11/24 08:14:03;;;;;;;9.05;1.65;;;8.60;99.90;;;;;;5073433;28;20209;-46
2022/11/24 08:16:28;;;;;;;9.38;2.20;;;8.70;99.90;;;;;;5073425;28;20245;-49
2022/11/24 08:18:54;;;;;;;7.03;1.98;;;8.70;99.90;;;;;;5073537;28;20190;-48
2022/11/24 08:21:24;;;;;;;8.52;2.13;;;8.70;99.90;;;;;;5074155;28;20174;-48
2022/11/24 08:23:55;;;;;;;8.20;2.58;;;8.70;99.90;;;;;;5073744;28;20176;-47
2022/11/24 08:26:23;;;;;;;8.40;2.55;;;8.80;99.90;;;;;;5073449;28;20582;-48
2022/11/24 08:28:56;;;;;;;7.25;2.63;;;8.80;99.90;;;;;;5073624;28;20162;-45
2022/11/24 08:31:24;;;;;;;7.80;2.80;;;8.90;99.90;;;;;;5073344;28;20659;-46
2022/11/24 08:33:50;;;;;;;4.38;1.77;;;9.00;99.90;;;;;;5073273;28;20193;-47
2022/11/24 08:36:18;;;;;;;9.73;2.30;;;9.10;99.90;;;;;;5073032;28;20166;-47
2022/11/24 08:38:44;;;;;;;7.50;2.33;;;9.10;99.90;;;;;;5055229;28;20215;-47
2022/11/24 08:41:12;;;;;;;9.57;2.67;;;9.10;99.90;;;;;;5073107;28;20643;-47
2022/11/24 08:43:38;;;;;;;7.13;2.30;;;9.20;99.90;;;;;;5073169;28;20174;-47
2022/11/24 08:46:09;;;;;;;8.88;2.20;;;9.20;99.90;;;;;;5072860;28;20165;-48
2022/11/24 08:48:35;;;;;;;11.68;2.45;;;9.20;99.90;;;;;;5055126;28;20667;-50
2022/11/24 08:51:08;;;;;;;9.30;2.40;;;9.20;99.90;;;;;;5072811;28;20170;-47
2022/11/24 08:53:33;;;;;;;7.45;2.40;;;9.30;99.90;;;;;;5072914;28;20216;-47
2022/11/24 08:56:00;;;;;;;7.22;2.58;;;9.30;99.90;;;;;;5072862;28;20154;-46
2022/11/24 08:58:26;;;;;;;6.35;1.83;;;9.40;99.90;;;;;;5072901;28;20591;-46
2022/11/24 09:00:52;;;;;;;6.78;2.20;;;9.30;99.90;;;;;;5072346;28;20616;-46
2022/11/24 09:03:17;;;;;;;9.85;2.97;;;9.30;99.90;;;;;;5072792;28;20170;-52
2022/11/24 09:05:43;;;;;;;6.63;2.33;;;9.40;99.90;;;;;;5072518;28;20219;-51
2022/11/24 09:08:09;;;;;;;11.02;2.50;;;9.40;99.90;;;;;;5072537;28;20166;-49
2022/11/24 09:10:35;;;;;;;10.23;2.95;;;9.40;99.90;;;;;;5072458;28;20174;-47
2022/11/24 09:13:01;;;;;;;13.85;3.13;;;9.40;99.90;;;;;;5072351;28;20204;-47
2022/11/24 09:15:27;;;;;;;14.73;2.72;;;9.50;99.90;;;;;;5072377;28;20174;-46
2022/11/24 09:17:52;;;;;;;10.73;2.38;;;9.50;99.90;;;;;;5070850;28;20209;-48
2022/11/24 09:20:18;;;;;;;4.05;2.25;;;9.50;99.90;;;;;;5072565;28;20204;-46
2022/11/24 09:22:43;;;;;;;8.25;1.80;;;9.50;99.90;;;;;;5072240;28;20170;-51
2022/11/24 09:25:09;;;;;;;7.15;2.00;;;9.60;99.90;;;;;;5072128;28;20173;-47
2022/11/24 09:27:35;;;;;;;10.30;2.30;;;9.50;99.90;;;;;;5072205;28;20178;-52
2022/11/24 09:30:01;;;;;;;11.48;3.42;;;9.50;99.90;;;;;;5070163;28;20196;-46
2022/11/24 09:32:29;;;;;;;9.48;1.98;;;9.60;99.90;;;;;;5071997;28;20177;-49
2022/11/24 09:34:55;;;;;;;8.85;2.10;;;9.70;99.90;;;;;;5071979;28;20700;-50
2022/11/24 09:37:20;;;;;;;10.93;2.75;;;9.70;99.90;;;;;;5072325;28;20170;-47
2022/11/24 09:39:46;;;;;;;8.00;2.05;;;9.70;99.90;;;;;;5072141;28;20174;-52
2022/11/24 09:42:36;;;;;;;9.02;2.35;;;9.80;99.90;;;;;;5071882;28;20169;-48
2022/11/24 09:45:26;;;;;;;11.40;2.35;;;9.80;99.90;;;;;;5033923;28;20190;-50
2022/11/24 09:48:01;;;;;;;9.65;2.70;;;9.70;99.90;;;;;;5069697;28;20589;-46
2022/11/24 09:50:32;;;;;;;15.43;3.58;;;9.70;99.90;;;;;;5071842;28;20173;-47
2022/11/24 09:53:07;;;;;;;11.00;2.67;;;9.60;99.90;;;;;;5071420;28;20220;-47
2022/11/24 09:55:42;;;;;;;9.02;2.42;;;9.60;99.90;;;;;;5071612;28;20507;-48
2022/11/24 09:58:26;;;;;;;5.80;1.70;;;9.60;99.90;;;;;;5071405;28;20674;-47
2022/11/24 10:00:53;;;;;;;7.85;2.10;;;9.60;99.90;;;;;;5071638;28;20243;-48
2022/11/24 10:03:23;;;;;;;8.85;2.03;;;9.60;99.90;;;;;;5071750;28;20518;-47
2022/11/24 10:05:51;;;;;;;6.38;1.83;;;9.60;99.90;;;;;;5071644;28;20162;-48
2022/11/24 10:09:09;;;;;;;5.90;1.85;;;9.60;99.90;;;;;;5071271;28;20245;-47
2022/11/24 10:11:57;;;;;;;7.35;2.25;;;9.60;99.90;;;;;;4989609;28;20176;-47
2022/11/24 10:14:52;;;;;;;10.25;2.58;;;9.70;99.90;;;;;;4989218;28;20371;-46
2022/11/24 10:17:44;;;;;;;17.05;2.97;;;9.70;99.90;;;;;;5064630;28;20268;-46
2022/11/24 10:20:34;;;;;;;11.50;2.13;;;9.70;99.90;;;;;;5070954;28;20223;-47
2022/11/24 10:23:31;;;;;;;8.20;1.98;;;9.70;99.90;;;;;;5071066;28;20201;-47
2022/11/24 10:26:00;;;;;;;4.63;1.88;;;9.70;99.90;;;;;;5070896;28;20505;-46
2022/11/24 10:28:37;;;;;;;6.10;1.92;;;9.70;99.90;;;;;;5070668;28;20173;-46
2022/11/24 10:31:22;;;;;;;6.63;1.83;;;9.80;99.90;;;;;;5071009;28;20601;-50
2022/11/24 10:33:48;;;;;;;10.30;2.78;;;9.80;99.90;;;;;;5071151;28;20214;-47
2022/11/24 10:36:24;;;;;;;5.88;1.98;;;9.80;99.90;;;;;;5070776;28;20521;-47
2022/11/24 10:39:04;;;;;;;8.20;2.08;;;9.80;99.90;;;;;;5071168;28;20176;-47
2022/11/24 10:41:51;;;;;;;12.00;2.35;;;9.70;99.90;;;;;;5070711;28;20174;-49
2022/11/24 10:44:17;;;;;;;13.35;2.75;;;9.80;99.90;;;;;;5071047;28;20174;-49
2022/11/24 10:46:43;;;;;;;7.65;1.98;;;9.80;99.90;;;;;;5052686;28;20326;-53
2022/11/24 10:49:21;;;;;;;9.80;2.28;;;9.90;99.90;;;;;;5070456;28;20654;-47
2022/11/24 10:52:14;;;;;;;10.48;2.47;;;9.90;99.90;;;;;;5071144;28;20169;-47
2022/11/24 10:54:58;;;;;;;4.35;1.73;;;9.90;99.90;;;;;;5070446;28;20673;-46
2022/11/24 10:57:35;;;;;;;14.90;2.85;;;9.90;99.90;;;;;;5070304;28;20162;-46
2022/11/24 11:00:03;;;;;;;7.13;2.47;;;10.00;99.90;;;;;;5070339;28;20720;-46
2022/11/24 11:02:38;;;;;;;7.60;2.50;;;10.00;99.90;;;;;;5070193;28;20185;-47
2022/11/24 11:05:23;;;;;;;15.43;2.90;;;10.00;99.90;;;;;;5070351;28;20272;-46
2022/11/24 11:07:48;;;;;;;11.93;2.70;;;12.00;99.90;;;;;;5070924;28;20596;-46
2022/11/24 11:10:20;;;;;;;10.57;2.47;;;10.90;99.90;;;;;;5070349;28;20409;-46
2022/11/24 11:12:46;;;;;;;10.98;2.58;;;10.40;99.90;;;;;;5070262;28;20322;-47
2022/11/24 11:15:28;;;;;;;14.00;2.63;;;10.60;99.90;;;;;;5052188;28;20639;-47
2022/11/24 11:18:00;;;;;;;8.57;2.20;;;10.50;99.90;;;;;;5070338;28;20173;-47
2022/11/24 11:20:31;;;;;;;6.32;2.15;;;10.70;99.90;;;;;;5068832;28;20272;-47
2022/11/24 11:23:02;;;;;;;8.02;2.17;;;10.60;99.90;;;;;;5070251;28;20299;-47
2022/11/24 11:25:32;;;;;;;8.48;1.98;;;10.70;99.90;;;;;;5052111;28;20169;-49
2022/11/24 11:28:17;;;;;;;13.88;3.08;;;10.80;99.90;;;;;;5069973;28;20170;-49
2022/11/24 11:31:05;;;;;;;8.35;2.25;;;10.80;99.90;;;;;;5070227;28;20265;-47
2022/11/24 11:33:35;;;;;;;5.88;2.20;;;10.80;99.90;;;;;;5069851;28;20605;-46
2022/11/24 11:36:07;;;;;;;10.18;2.67;;;10.90;99.90;;;;;;5070180;28;20178;-47
2022/11/24 11:38:37;;;;;;;10.60;2.40;;;11.00;99.90;;;;;;5069850;28;20169;-46
2022/11/24 11:41:04;;;;;;;13.25;2.70;;;11.00;99.90;;;;;;5069094;28;20202;-46
2022/11/24 11:43:39;;;;;;;10.73;2.40;;;11.10;99.90;;;;;;5069862;28;20170;-46
2022/11/24 11:46:12;;;;;;;9.85;3.50;;;11.20;99.90;;;;;;5070092;28;20180;-47
2022/11/24 11:48:43;;;;;;;11.05;2.78;;;11.20;99.90;;;;;;5069647;28;20528;-47
2022/11/24 11:51:09;;;;;;;15.75;2.35;;;11.20;99.90;;;;;;5070124;28;20161;-47
2022/11/24 11:53:45;;;;;;;11.18;2.63;;;11.20;99.90;;;;;;5069828;28;20206;-47
2022/11/24 11:56:28;;;;;;;13.55;2.72;;;11.20;99.90;;;;;;5069717;28;20165;-52
2022/11/24 11:59:33;;;;;;;9.48;2.00;;;11.20;99.90;;;;;;5069636;28;20653;-48
2022/11/24 12:02:30;;;;;;;6.10;1.95;;;11.20;99.90;;;;;;5069577;28;20757;-46
2022/11/24 12:04:59;;;;;;;8.15;1.70;;;11.20;99.90;;;;;;5069707;28;20190;-47
2022/11/24 12:07:41;;;;;;;11.95;2.97;;;11.10;99.90;;;;;;5069525;28;20668;-48
2022/11/24 12:10:32;;;;;;;10.60;2.28;;;11.10;99.90;;;;;;5069676;28;20162;-47
2022/11/24 12:13:24;;;;;;;12.93;2.20;;;11.10;99.90;;;;;;5069675;28;20170;-46
2022/11/24 12:15:53;;;;;;;8.27;2.10;;;11.10;99.90;;;;;;5069754;28;20638;-47
2022/11/24 12:18:42;;;;;;;11.40;2.33;;;11.20;99.90;;;;;;5069849;28;20170;-49
2022/11/24 12:21:16;;;;;;;11.77;2.72;;;11.20;99.90;;;;;;5069799;28;20174;-47
2022/11/24 12:24:00;;;;;;;13.77;3.40;;;11.30;99.90;;;;;;5069636;28;21095;-47
2022/11/24 12:26:47;;;;;;;10.25;3.88;;;11.30;99.90;;;;;;5069454;28;20178;-46
2022/11/24 12:29:47;;;;;;;11.18;2.88;;;11.30;99.90;;;;;;5069369;28;20224;-47
2022/11/24 12:32:34;;;;;;;11.18;3.00;;;11.30;99.90;;;;;;5069528;28;20613;-49
2022/11/24 12:34:59;;;;;;;12.55;3.20;;;11.30;99.90;;;;;;5069241;28;20202;-46
2022/11/24 12:37:45;;;;;;;9.00;2.78;;;11.30;99.90;;;;;;5069636;28;20573;-50
2022/11/24 12:40:43;;;;;;;10.60;3.80;;;11.30;99.90;;;;;;5069323;28;20172;-49
2022/11/24 12:43:45;;;;;;;14.50;2.83;;;11.30;99.90;;;;;;5028195;28;20178;-52
2022/11/24 12:46:42;;;;;;;10.40;3.20;;;11.30;99.90;;;;;;5027141;28;20182;-47
2022/11/24 12:49:11;;;;;;;11.75;2.83;;;11.40;99.90;;;;;;5069211;28;20216;-52
2022/11/24 12:51:43;;;;;;;10.95;2.53;;;11.40;99.90;;;;;;5069549;28;20292;-49
2022/11/24 12:54:20;;;;;;;10.98;2.83;;;11.40;99.90;;;;;;5072740;28;20213;-50
2022/11/24 12:57:08;;;;;;;10.65;3.05;;;11.40;99.90;;;;;;5072690;28;20629;-49
2022/11/24 12:59:48;;;;;;;7.30;2.33;;;11.40;99.90;;;;;;5072476;28;20622;-47
2022/11/24 13:02:37;;;;;;;7.03;2.45;;;12.20;99.90;;;;;;5072589;28;20183;-50